createdAt,value
2019-02-27T00:01:56.724Z,10.33
2019-02-27T00:04:37.525Z,9.33
2019-02-27T00:07:20.832Z,10.77
2019-02-27T00:10:00.902Z,10.23
2019-02-27T00:12:41.385Z,9.83
2019-02-27T00:15:22.559Z,10.33
2019-02-27T00:18:03.328Z,8.40
2019-02-27T00:20:44.055Z,9.10
2019-02-27T00:23:25.239Z,8.73
2019-02-27T00:28:50.146Z,10.27
2019-02-27T00:31:31.303Z,9.30
2019-02-27T00:34:12.212Z,8.63
2019-02-27T00:36:53.040Z,10.23
2019-02-27T00:39:33.804Z,9.40
2019-02-27T00:42:19.494Z,9.07
2019-02-27T00:44:57.672Z,10.30
2019-02-27T00:47:38.611Z,9.43
2019-02-27T00:50:19.936Z,9.33
2019-02-27T00:53:00.674Z,8.27
2019-02-27T00:55:41.426Z,9.97
2019-02-27T00:58:11.595Z,10.00
2019-02-27T01:00:59.739Z,8.73
2019-02-27T01:03:40.834Z,8.40
2019-02-27T01:06:12.226Z,10.13
2019-02-27T01:11:46.208Z,10.43
2019-02-27T01:14:26.810Z,10.40
2019-02-27T01:17:07.283Z,9.53
2019-02-27T01:19:50.628Z,9.90
2019-02-27T01:22:20.798Z,10.63
2019-02-27T01:25:09.379Z,11.10
2019-02-27T01:27:50.491Z,9.90
2019-02-27T01:30:31.356Z,9.30
2019-02-27T01:33:12.294Z,9.40
2019-02-27T01:35:52.914Z,9.37
2019-02-27T01:38:37.655Z,8.73
2019-02-27T01:41:15.793Z,9.73
2019-02-27T01:43:56.543Z,10.07
2019-02-27T01:46:37.412Z,10.10
2019-02-27T01:49:18.014Z,8.70
2019-02-27T01:51:59.140Z,8.67
2019-02-27T01:54:41.599Z,8.40
2019-02-27T01:57:22.471Z,8.93
2019-02-27T02:00:03.405Z,8.63
2019-02-27T02:02:44.374Z,9.30
2019-02-27T02:05:27.102Z,9.53
2019-02-27T02:08:13.496Z,9.30
2019-02-27T02:10:50.831Z,9.60
2019-02-27T02:13:31.463Z,10.40
2019-02-27T02:16:12.755Z,9.80
2019-02-27T02:18:53.292Z,9.77
2019-02-27T02:21:34.315Z,11.37
2019-02-27T02:24:15.819Z,11.50
2019-02-27T02:26:56.582Z,10.73
2019-02-27T02:29:37.459Z,9.23
2019-02-27T02:32:18.154Z,10.20
2019-02-27T02:34:58.844Z,10.67
2019-02-27T02:37:39.659Z,9.70
2019-02-27T02:40:20.231Z,9.37
2019-02-27T02:43:03.165Z,9.30
2019-02-27T02:45:43.834Z,9.73
2019-02-27T02:48:27.902Z,9.20
2019-02-27T02:51:07.479Z,9.50
2019-02-27T02:53:48.934Z,9.77
2019-02-27T02:56:30.045Z,8.90
2019-02-27T02:59:10.993Z,8.43
2019-02-27T03:01:51.919Z,8.43
2019-02-27T03:04:32.983Z,9.50
2019-02-27T03:07:13.760Z,8.30
2019-02-27T03:09:54.718Z,8.50
2019-02-27T03:12:35.739Z,8.97
2019-02-27T03:15:16.960Z,8.93
2019-02-27T03:17:57.932Z,10.20
2019-02-27T03:20:38.784Z,8.90
2019-02-27T03:23:19.437Z,8.80
2019-02-27T03:26:00.449Z,8.10
2019-02-27T03:28:41.803Z,8.20
2019-02-27T03:31:23.132Z,7.87
2019-02-27T03:34:08.143Z,7.90
2019-02-27T03:36:46.707Z,8.07
2019-02-27T03:39:27.575Z,8.60
2019-02-27T03:42:08.482Z,7.57
2019-02-27T03:44:49.139Z,7.27
2019-02-27T03:47:30.203Z,7.23
2019-02-27T03:50:14.641Z,8.47
2019-02-27T03:52:53.323Z,8.27
2019-02-27T03:55:34.740Z,7.53
2019-02-27T03:58:15.886Z,7.97
2019-02-27T04:00:56.539Z,7.40
2019-02-27T04:03:37.442Z,7.27
2019-02-27T04:06:21.339Z,7.37
2019-02-27T04:09:00.786Z,7.13
2019-02-27T04:11:42.829Z,7.63
2019-02-27T04:17:32.741Z,7.33
2019-02-27T04:20:15.516Z,7.60
2019-02-27T04:22:55.360Z,7.13
2019-02-27T04:25:36.051Z,7.50
2019-02-27T04:28:17.171Z,7.13
2019-02-27T04:30:57.949Z,7.67
2019-02-27T04:33:38.775Z,7.80
2019-02-27T04:36:19.764Z,7.47
2019-02-27T04:39:02.431Z,8.33
2019-02-27T04:41:43.336Z,8.10
2019-02-27T04:44:23.753Z,7.93
2019-02-27T04:47:04.338Z,7.50
2019-02-27T04:49:45.041Z,6.87
2019-02-27T04:52:26.134Z,7.70
2019-02-27T04:55:06.857Z,7.00
2019-02-27T04:57:47.799Z,7.10
2019-02-27T05:00:28.848Z,7.93
2019-02-27T05:03:09.798Z,6.87
2019-02-27T05:05:50.998Z,6.57
2019-02-27T05:08:31.612Z,7.60
2019-02-27T05:11:14.330Z,7.63
2019-02-27T05:16:46.976Z,7.83
2019-02-27T05:19:27.040Z,7.77
2019-02-27T05:22:07.977Z,7.53
2019-02-27T05:24:48.505Z,8.00
2019-02-27T05:27:29.593Z,6.73
2019-02-27T05:30:12.212Z,7.47
2019-02-27T05:32:54.051Z,7.37
2019-02-27T05:35:34.948Z,7.53
2019-02-27T05:38:15.610Z,6.60
2019-02-27T05:40:59.884Z,6.00
2019-02-27T05:43:39.139Z,6.67
2019-02-27T05:46:19.960Z,6.97
2019-02-27T05:49:00.674Z,7.00
2019-02-27T05:51:41.261Z,7.87
2019-02-27T05:54:22.444Z,7.00
2019-02-27T05:57:03.274Z,7.70
2019-02-27T05:59:44.129Z,6.43
2019-02-27T06:02:25.544Z,6.43
2019-02-27T06:05:06.832Z,6.90
2019-02-27T06:07:47.414Z,6.27
2019-02-27T06:10:27.945Z,6.77
2019-02-27T06:13:09.020Z,6.73
2019-02-27T06:15:49.642Z,7.60
2019-02-27T06:18:30.239Z,7.77
2019-02-27T06:21:13.341Z,8.20
2019-02-27T06:23:53.522Z,7.67
2019-02-27T06:26:34.303Z,7.93
2019-02-27T06:29:15.129Z,7.03
2019-02-27T06:31:55.908Z,8.13
2019-02-27T06:34:36.702Z,7.23
2019-02-27T06:37:17.459Z,7.47
2019-02-27T06:39:58.184Z,7.10
2019-02-27T06:42:38.912Z,7.53
2019-02-27T06:45:19.732Z,6.80
2019-02-27T06:48:00.502Z,7.17
2019-02-27T06:50:41.316Z,6.60
2019-02-27T06:53:22.023Z,6.77
2019-02-27T06:56:03.968Z,8.40
2019-02-27T06:58:44.715Z,7.40
2019-02-27T07:01:25.294Z,7.67
2019-02-27T07:04:08.077Z,7.07
2019-02-27T07:06:49.091Z,7.00
2019-02-27T07:09:29.883Z,8.70
2019-02-27T07:12:10.576Z,8.00
2019-02-27T07:14:51.193Z,7.87
2019-02-27T07:17:32.493Z,8.47
2019-02-27T07:20:12.918Z,8.40
2019-02-27T07:22:53.970Z,9.23
2019-02-27T07:25:35.029Z,8.33
2019-02-27T07:28:15.668Z,8.80
2019-02-27T07:30:56.338Z,8.10
2019-02-27T07:33:37.967Z,8.07
2019-02-27T07:36:19.831Z,8.07
2019-02-27T07:39:00.853Z,7.73
2019-02-27T07:41:41.271Z,8.20
2019-02-27T07:44:22.092Z,8.73
2019-02-27T07:47:03.320Z,8.57
2019-02-27T07:49:43.978Z,8.30
2019-02-27T07:52:24.587Z,8.30
2019-02-27T07:55:18.567Z,9.83
2019-02-27T07:57:48.026Z,9.23
2019-02-27T08:00:28.675Z,9.07
2019-02-27T08:03:12.876Z,9.13
2019-02-27T08:05:52.323Z,10.30
2019-02-27T08:08:33.261Z,9.23
2019-02-27T08:11:14.271Z,9.90
2019-02-27T08:13:54.962Z,8.63
2019-02-27T08:16:37.020Z,9.20
2019-02-27T08:19:17.794Z,9.17
2019-02-27T08:21:58.661Z,9.80
2019-02-27T08:24:39.419Z,9.67
2019-02-27T08:27:19.939Z,9.20
2019-02-27T08:30:00.861Z,9.30
2019-02-27T08:32:42.286Z,9.60
2019-02-27T08:35:23.103Z,9.23
2019-02-27T08:38:03.847Z,9.97
2019-02-27T08:40:44.617Z,7.80
2019-02-27T08:43:25.857Z,8.77
2019-02-27T08:46:06.692Z,8.80
2019-02-27T08:48:49.928Z,9.87
2019-02-27T08:51:30.392Z,10.03
2019-02-27T08:54:11.283Z,9.50
2019-02-27T08:56:52.167Z,9.10
2019-02-27T08:59:33.098Z,8.87
2019-02-27T09:02:13.869Z,8.90
2019-02-27T09:04:54.780Z,9.53
2019-02-27T09:07:36.506Z,10.07
2019-02-27T09:10:18.295Z,9.67
2019-02-27T09:13:05.397Z,9.13
2019-02-27T09:15:41.762Z,8.77
2019-02-27T09:18:22.992Z,9.30
2019-02-27T09:21:03.962Z,8.67
2019-02-27T09:23:44.804Z,8.53
2019-02-27T09:26:25.622Z,9.03
2019-02-27T09:29:06.359Z,9.13
2019-02-27T09:31:50.820Z,8.57
2019-02-27T09:34:29.980Z,9.83
2019-02-27T09:37:10.912Z,8.50
2019-02-27T09:39:51.708Z,9.23
2019-02-27T09:42:32.772Z,8.67
2019-02-27T09:45:13.752Z,9.90
2019-02-27T09:47:54.435Z,9.37
2019-02-27T09:50:35.036Z,8.87
2019-02-27T09:53:15.882Z,9.00
2019-02-27T09:55:56.646Z,8.70
2019-02-27T09:58:37.770Z,9.00
2019-02-27T10:01:19.036Z,10.40
2019-02-27T10:03:59.848Z,9.67
2019-02-27T10:06:42.843Z,9.23
2019-02-27T10:09:23.343Z,8.73
2019-02-27T10:14:28.624Z,9.27
2019-02-27T10:17:09.875Z,10.07
2019-02-27T10:19:51.152Z,9.57
2019-02-27T10:22:31.926Z,9.13
2019-02-27T10:25:13.083Z,8.87
2019-02-27T10:27:53.951Z,8.73
2019-02-27T10:30:34.688Z,8.40
2019-02-27T10:33:15.138Z,8.37
2019-02-27T10:35:55.899Z,7.77
2019-02-27T10:38:40.299Z,8.23
2019-02-27T10:41:18.665Z,8.77
2019-02-27T10:43:59.003Z,8.33
2019-02-27T10:46:39.895Z,7.60
2019-02-27T10:49:21.811Z,7.67
2019-02-27T10:52:03.362Z,7.63
2019-02-27T10:54:44.543Z,8.43
2019-02-27T10:57:25.428Z,8.33
2019-02-27T11:00:06.620Z,7.80
2019-02-27T11:02:47.921Z,8.90
2019-02-27T11:05:29.000Z,7.63
2019-02-27T11:08:09.869Z,7.50
2019-02-27T11:10:50.643Z,8.10
2019-02-27T11:13:30.295Z,7.30
2019-02-27T11:16:09.902Z,6.47
2019-02-27T11:18:51.216Z,6.73
2019-02-27T11:21:32.008Z,7.37
2019-02-27T11:24:14.551Z,8.17
2019-02-27T11:26:56.936Z,7.50
2019-02-27T11:29:38.027Z,5.90
2019-02-27T11:32:22.986Z,6.70
2019-02-27T11:35:01.845Z,7.20
2019-02-27T11:37:44.361Z,7.07
2019-02-27T11:40:25.444Z,5.90
2019-02-27T11:43:06.938Z,6.67
2019-02-27T11:45:47.991Z,6.47
2019-02-27T11:48:29.097Z,5.50
2019-02-27T11:51:10.070Z,5.80
2019-02-27T11:53:50.827Z,10.70
2019-02-27T11:56:31.903Z,7.63
2019-02-27T11:59:13.045Z,6.30
2019-02-27T12:01:56.171Z,7.17
2019-02-27T12:04:37.565Z,6.07
2019-02-27T12:07:18.539Z,5.40
2019-02-27T12:09:59.601Z,4.97
2019-02-27T12:12:40.278Z,6.87
2019-02-27T12:15:21.323Z,5.87
2019-02-27T12:18:02.143Z,5.37
2019-02-27T12:20:42.798Z,4.53
2019-02-27T12:23:11.950Z,5.20
2019-02-27T12:26:02.497Z,5.37
2019-02-27T12:28:30.907Z,4.70
2019-02-27T12:31:19.116Z,4.50
2019-02-27T12:34:02.335Z,4.40
2019-02-27T12:36:42.549Z,4.40
2019-02-27T12:39:23.306Z,4.87
2019-02-27T12:42:04.170Z,4.00
2019-02-27T12:44:46.377Z,4.60
2019-02-27T12:47:26.984Z,3.93
2019-02-27T12:50:06.579Z,3.50
2019-02-27T12:52:48.220Z,4.23
2019-02-27T12:55:29.139Z,4.03
2019-02-27T12:58:09.790Z,4.30
2019-02-27T13:00:50.941Z,5.03
2019-02-27T13:03:31.535Z,5.20
2019-02-27T13:06:12.424Z,5.13
2019-02-27T13:08:53.465Z,5.27
2019-02-27T13:11:34.670Z,5.33
2019-02-27T13:14:16.095Z,5.13
2019-02-27T13:16:57.248Z,5.40
2019-02-27T13:19:39.026Z,5.43
2019-02-27T13:22:19.891Z,4.43
2019-02-27T13:25:01.112Z,4.60
2019-02-27T13:27:43.290Z,4.50
2019-02-27T13:30:22.766Z,4.17
2019-02-27T13:33:03.492Z,4.30
2019-02-27T13:35:44.377Z,4.40
2019-02-27T13:38:25.011Z,3.90
2019-02-27T13:41:07.665Z,4.40
2019-02-27T13:43:48.558Z,2.90
2019-02-27T13:46:29.154Z,3.40
2019-02-27T13:49:11.354Z,2.53
2019-02-27T13:51:53.075Z,2.33
2019-02-27T13:54:37.936Z,2.30
2019-02-27T13:57:16.915Z,2.53
2019-02-27T13:59:57.759Z,2.50
2019-02-27T14:02:39.459Z,2.60
2019-02-27T14:05:20.918Z,2.80
2019-02-27T14:07:50.003Z,2.80
2019-02-27T14:10:38.174Z,2.90
2019-02-27T14:13:26.322Z,3.33
2019-02-27T14:16:07.230Z,3.97
2019-02-27T14:18:49.974Z,4.10
2019-02-27T14:21:35.245Z,4.00
2019-02-27T14:24:14.117Z,3.57
2019-02-27T14:26:54.882Z,4.33
2019-02-27T14:29:35.652Z,4.70
2019-02-27T14:32:16.560Z,5.27
2019-02-27T14:34:58.008Z,4.80
2019-02-27T14:37:40.156Z,4.70
2019-02-27T14:40:20.767Z,5.13
2019-02-27T14:43:01.903Z,4.43
2019-02-27T14:45:42.524Z,4.90
2019-02-27T14:48:23.180Z,4.93
2019-02-27T14:51:07.314Z,4.10
2019-02-27T14:53:47.046Z,4.40
2019-02-27T14:56:28.288Z,4.93
2019-02-27T14:59:08.995Z,4.90
2019-02-27T15:01:50.131Z,4.70
2019-02-27T15:04:32.305Z,4.37
2019-02-27T15:07:13.882Z,4.43
2019-02-27T15:09:54.574Z,4.17
2019-02-27T15:12:35.896Z,4.43
2019-02-27T15:15:16.918Z,4.00
2019-02-27T15:17:57.616Z,4.43
2019-02-27T15:20:40.994Z,4.20
2019-02-27T15:23:24.508Z,4.50
2019-02-27T15:26:03.924Z,4.10
2019-02-27T15:28:44.828Z,4.33
2019-02-27T15:31:25.588Z,4.43
2019-02-27T15:34:06.357Z,4.23
2019-02-27T15:36:47.308Z,4.47
2019-02-27T15:42:12.508Z,4.80
2019-02-27T15:44:53.231Z,4.53
2019-02-27T15:47:34.023Z,4.63
2019-02-27T15:50:15.345Z,4.10
2019-02-27T15:52:56.122Z,4.53
2019-02-27T15:55:37.895Z,4.00
2019-02-27T15:58:19.494Z,4.40
2019-02-27T16:01:00.026Z,4.30
2019-02-27T16:03:42.104Z,4.63
2019-02-27T16:06:23.327Z,4.37
2019-02-27T16:09:03.942Z,4.43
2019-02-27T16:11:44.794Z,4.13
2019-02-27T16:14:25.666Z,4.20
2019-02-27T16:17:06.605Z,4.13
2019-02-27T16:19:47.184Z,4.47
2019-02-27T16:22:28.528Z,5.07
2019-02-27T16:25:10.586Z,5.27
2019-02-27T16:27:51.290Z,5.20
2019-02-27T16:30:32.993Z,5.00
2019-02-27T16:33:13.976Z,4.70
2019-02-27T16:35:54.658Z,4.30
2019-02-27T16:38:35.677Z,3.73
2019-02-27T16:41:16.463Z,4.70
2019-02-27T16:43:56.929Z,4.30
2019-02-27T16:46:43.250Z,4.97
2019-02-27T16:49:20.227Z,4.30
2019-02-27T16:52:13.773Z,4.40
2019-02-27T16:54:42.963Z,4.70
2019-02-27T16:57:12.155Z,3.93
2019-02-27T16:59:42.246Z,4.60
2019-02-27T17:02:12.410Z,3.90
2019-02-27T17:04:42.790Z,4.43
2019-02-27T17:07:11.991Z,3.70
2019-02-27T17:09:43.802Z,3.50
2019-02-27T17:12:11.951Z,3.50
2019-02-27T17:14:41.311Z,2.83
2019-02-27T17:17:11.455Z,3.33
2019-02-27T17:19:40.540Z,3.83
2019-02-27T17:22:10.980Z,3.63
2019-02-27T17:24:40.279Z,4.07
2019-02-27T17:27:12.574Z,3.80
2019-02-27T17:29:41.220Z,4.53
2019-02-27T17:32:10.335Z,5.33
2019-02-27T17:34:39.407Z,5.30
2019-02-27T17:37:08.516Z,4.87
2019-02-27T17:39:37.608Z,5.03
2019-02-27T17:42:06.705Z,5.13
2019-02-27T17:44:37.817Z,6.07
2019-02-27T17:47:08.176Z,5.27
2019-02-27T17:49:37.471Z,5.53
2019-02-27T17:52:11.367Z,4.83
2019-02-27T17:54:37.414Z,4.60
2019-02-27T17:57:06.521Z,4.47
2019-02-27T17:59:35.606Z,4.77
2019-02-27T18:02:04.896Z,4.83
2019-02-27T18:04:34.000Z,4.70
2019-02-27T18:07:06.173Z,4.90
2019-02-27T18:09:34.957Z,4.63
2019-02-27T18:12:04.050Z,4.57
2019-02-27T18:14:34.179Z,4.87
2019-02-27T18:17:03.256Z,4.50
2019-02-27T18:19:33.405Z,4.80
2019-02-27T18:22:02.471Z,4.70
2019-02-27T18:24:34.198Z,5.07
2019-02-27T18:27:02.524Z,5.60
2019-02-27T18:29:31.756Z,5.93
2019-02-27T18:32:06.158Z,9.47
2019-02-27T18:34:31.789Z,8.93
2019-02-27T18:37:00.984Z,10.07
2019-02-27T18:39:30.170Z,7.60
2019-02-27T18:41:59.384Z,7.53
2019-02-27T18:44:28.580Z,6.37
2019-02-27T18:46:59.412Z,7.50
2019-02-27T18:49:28.589Z,7.33
2019-02-27T18:51:57.685Z,8.57
2019-02-27T18:54:26.782Z,7.17
2019-02-27T18:56:55.878Z,7.83
2019-02-27T18:59:29.400Z,7.57
2019-02-27T19:01:55.891Z,7.17
2019-02-27T19:04:25.067Z,7.50
2019-02-27T19:06:54.212Z,7.47
2019-02-27T19:09:23.314Z,6.87
2019-02-27T19:11:52.425Z,7.57
2019-02-27T19:14:21.615Z,7.33
2019-02-27T19:16:52.132Z,7.27
2019-02-27T19:19:21.728Z,7.20
2019-02-27T19:21:50.845Z,7.07
2019-02-27T19:24:20.060Z,7.17
2019-02-27T19:26:49.529Z,6.87
2019-02-27T19:29:18.628Z,12.43
2019-02-27T19:31:48.342Z,15.87
2019-02-27T19:34:18.588Z,22.20
2019-02-27T19:36:47.749Z,15.33
2019-02-27T19:39:18.299Z,11.07
2019-02-27T19:41:47.788Z,9.63
2019-02-27T19:44:16.873Z,9.00
2019-02-27T19:46:47.647Z,8.67
2019-02-27T19:49:17.848Z,8.67
2019-02-27T19:51:47.025Z,8.43
2019-02-27T19:54:18.537Z,9.37
2019-02-27T19:56:47.010Z,8.73
2019-02-27T19:59:16.299Z,8.00
2019-02-27T20:01:49.063Z,7.90
2019-02-27T20:04:16.349Z,8.77
2019-02-27T20:06:45.614Z,8.57
2019-02-27T20:09:18.992Z,9.07
2019-02-27T20:11:45.916Z,10.47
2019-02-27T20:14:15.103Z,10.63
2019-02-27T20:16:45.626Z,9.20
2019-02-27T20:19:22.194Z,9.63
2019-02-27T20:21:45.793Z,10.10
2019-02-27T20:24:15.215Z,10.03
2019-02-27T20:26:44.906Z,9.63
2019-02-27T20:29:14.120Z,9.37
2019-02-27T20:31:43.236Z,9.63
2019-02-27T20:34:12.583Z,9.33
2019-02-27T20:36:41.723Z,9.97
2019-02-27T20:39:11.043Z,10.40
2019-02-27T20:41:43.197Z,9.87
2019-02-27T20:44:11.506Z,9.63
2019-02-27T20:46:40.683Z,9.53
2019-02-27T20:49:10.451Z,10.40
2019-02-27T20:51:40.725Z,10.37
2019-02-27T20:54:09.807Z,9.50
2019-02-27T20:56:38.806Z,9.37
2019-02-27T20:59:07.920Z,9.63
2019-02-27T21:01:38.126Z,10.00
2019-02-27T21:04:07.490Z,9.53
2019-02-27T21:06:36.600Z,9.77
2019-02-27T21:09:11.893Z,9.97
2019-02-27T21:11:39.096Z,10.70
2019-02-27T21:14:08.427Z,9.40
2019-02-27T21:16:40.178Z,10.23
2019-02-27T21:19:11.095Z,11.90
2019-02-27T21:21:40.185Z,10.30
2019-02-27T21:24:09.543Z,11.03
2019-02-27T21:26:38.737Z,11.83
2019-02-27T21:29:08.643Z,12.43
2019-02-27T21:31:39.855Z,12.67
2019-02-27T21:34:08.969Z,11.43
2019-02-27T21:36:39.134Z,12.40
2019-02-27T21:39:08.388Z,11.93
2019-02-27T21:41:37.473Z,12.33
2019-02-27T21:44:06.551Z,12.40
2019-02-27T21:46:35.808Z,12.53
2019-02-27T21:49:05.011Z,11.97
2019-02-27T21:51:34.144Z,13.47
2019-02-27T21:54:04.013Z,13.00
2019-02-27T21:56:34.775Z,11.50
2019-02-27T21:59:04.742Z,11.63
2019-02-27T22:01:35.026Z,10.90
2019-02-27T22:04:04.155Z,11.17
2019-02-27T22:06:35.503Z,10.20
2019-02-27T22:09:05.311Z,10.83
2019-02-27T22:11:34.435Z,10.97
2019-02-27T22:14:03.629Z,11.63
2019-02-27T22:16:32.795Z,10.47
2019-02-27T22:19:02.925Z,10.27
2019-02-27T22:21:34.087Z,12.17
2019-02-27T22:24:03.872Z,11.50
2019-02-27T22:26:34.130Z,11.37
2019-02-27T22:29:03.931Z,10.20
2019-02-27T22:31:32.999Z,9.57
2019-02-27T22:34:04.230Z,11.13
2019-02-27T22:36:33.339Z,10.57
2019-02-27T22:39:02.450Z,11.47
2019-02-27T22:41:31.565Z,10.90
2019-02-27T22:44:00.824Z,10.33
2019-02-27T22:46:30.961Z,10.63
2019-02-27T22:49:00.903Z,11.30
2019-02-27T22:51:33.332Z,10.70
2019-02-27T22:54:02.889Z,11.27
2019-02-27T22:56:32.050Z,10.37
2019-02-27T22:59:02.958Z,10.63
2019-02-27T23:01:50.490Z,10.97
2019-02-27T23:04:18.382Z,10.27
2019-02-27T23:06:47.953Z,10.63
2019-02-27T23:09:20.937Z,11.57
2019-02-27T23:11:50.139Z,10.83
2019-02-27T23:14:19.805Z,10.17
2019-02-27T23:16:49.047Z,10.87
2019-02-27T23:19:19.282Z,11.73
2019-02-27T23:21:50.435Z,11.60
2019-02-27T23:24:20.585Z,11.20
2019-02-27T23:26:54.325Z,10.13
2019-02-27T23:29:20.610Z,10.00
2019-02-27T23:31:50.755Z,10.50
2019-02-27T23:34:19.928Z,9.53
2019-02-27T23:36:49.131Z,10.80
2019-02-27T23:39:18.225Z,11.37
2019-02-27T23:41:47.316Z,10.97
2019-02-27T23:44:17.449Z,11.83
2019-02-27T23:46:51.313Z,11.80
2019-02-27T23:49:19.641Z,10.57
2019-02-27T23:51:48.844Z,10.87
2019-02-27T23:54:18.026Z,11.07
2019-02-27T23:56:47.148Z,10.60
2019-02-27T23:59:16.342Z,10.67
